Time;durP1;ratioP1;P1;durP2;ratioP2;P2;SDS_P1;SDS_P2;PMS_P1;PMS_P2;Temp;Humidity;BMP_temperature;BMP_pressure;BME280_temperature;BME280_humidity;BME280_pressure;Samples;Min_cycle;Max_cycle;Signal;HPM_P1;HPM_P2
2022/07/19 00:00:46;;;;;;;8.57;4.18;;;;;;;23.16;100.00;101781.63;5110048;28;20486;-69
2022/07/19 00:03:13;;;;;;;8.80;4.13;;;;;;;23.00;100.00;101775.66;5096433;28;20024;-69
2022/07/19 00:05:38;;;;;;;8.68;3.80;;;;;;;22.89;100.00;101775.88;5096125;28;20028;-70
2022/07/19 00:08:04;;;;;;;8.70;4.20;;;;;;;22.92;100.00;101772.25;5096025;28;20097;-70
2022/07/19 00:10:29;;;;;;;6.00;4.10;;;;;;;22.94;100.00;101770.38;5096217;28;20394;-70
2022/07/19 00:12:54;;;;;;;7.43;4.20;;;;;;;22.88;100.00;101771.41;5096337;28;20037;-69
2022/07/19 00:15:20;;;;;;;7.50;4.18;;;;;;;22.79;100.00;101777.84;5109663;28;20047;-69
2022/07/19 00:17:47;;;;;;;9.65;4.40;;;;;;;22.72;100.00;101765.44;5095999;28;20023;-69
2022/07/19 00:20:16;;;;;;;6.88;3.92;;;;;;;22.73;100.00;101775.28;5100474;28;20020;-69
2022/07/19 00:22:41;;;;;;;5.57;4.32;;;;;;;22.77;100.00;101771.63;5107038;28;20051;-69
2022/07/19 00:25:07;;;;;;;6.50;3.83;;;;;;;22.84;100.00;101770.59;5111176;28;20110;-69
2022/07/19 00:27:33;;;;;;;6.90;3.90;;;;;;;22.77;100.00;101760.88;5116205;28;20035;-70
2022/07/19 00:29:58;;;;;;;6.70;4.15;;;;;;;22.70;100.00;101769.97;5084353;28;20464;-69
2022/07/19 00:32:24;;;;;;;8.40;4.43;;;;;;;22.70;100.00;101768.16;5115988;28;20403;-70
2022/07/19 00:34:49;;;;;;;5.20;3.78;;;;;;;22.69;100.00;101762.84;5098030;28;20030;-70
2022/07/19 00:37:15;;;;;;;4.78;3.78;;;;;;;22.66;100.00;101761.09;5115989;28;20019;-69
2022/07/19 00:39:40;;;;;;;11.00;4.22;;;;;;;22.66;100.00;101765.59;5115550;28;20024;-70
2022/07/19 00:42:06;;;;;;;5.10;3.80;;;;;;;22.62;100.00;101767.44;5115597;28;20026;-70
2022/07/19 00:44:31;;;;;;;8.75;4.10;;;;;;;22.56;100.00;101768.44;5115643;28;20081;-71
2022/07/19 00:46:57;;;;;;;8.75;4.72;;;;;;;22.50;100.00;101770.34;5115722;28;20019;-70
2022/07/19 00:49:22;;;;;;;8.65;4.85;;;;;;;22.53;100.00;101770.28;5099958;28;20027;-70
2022/07/19 00:51:52;;;;;;;11.75;3.92;;;;;;;22.52;100.00;101771.22;5095345;28;20032;-69
2022/07/19 00:54:19;;;;;;;7.32;3.97;;;;;;;22.50;100.00;101770.34;5110790;28;20031;-70
2022/07/19 00:56:48;;;;;;;9.40;4.07;;;;;;;22.42;100.00;101766.94;5106251;28;20438;-70
2022/07/19 00:59:14;;;;;;;8.63;3.72;;;;;;;22.39;100.00;101770.53;5095318;28;20024;-69
2022/07/19 01:01:40;;;;;;;9.43;4.07;;;;;;;22.39;100.00;101767.88;5094922;28;20028;-68
2022/07/19 01:04:05;;;;;;;5.30;3.90;;;;;;;22.34;100.00;101765.28;5094612;28;20036;-70
2022/07/19 01:06:31;;;;;;;8.70;4.28;;;;;;;22.37;100.00;101769.72;5095165;28;20023;-70
2022/07/19 01:08:56;;;;;;;8.98;4.55;;;;;;;22.36;100.00;101767.94;5095112;28;20028;-69
2022/07/19 01:11:21;;;;;;;7.60;5.63;;;;;;;22.36;100.00;101773.28;5095019;28;20043;-70
2022/07/19 01:13:48;;;;;;;8.65;4.50;;;;;;;22.31;100.00;101770.63;5096983;28;20027;-69
2022/07/19 01:16:13;;;;;;;8.38;4.70;;;;;;;22.27;100.00;101768.06;5106449;28;20353;-69
2022/07/19 01:18:39;;;;;;;7.55;4.90;;;;;;;22.23;100.00;101762.75;5096644;28;20031;-70
2022/07/19 01:21:05;;;;;;;9.93;4.63;;;;;;;22.19;100.00;101761.03;5103484;28;20362;-69
2022/07/19 01:23:30;;;;;;;7.57;4.82;;;;;;;22.11;100.00;101757.59;5096848;28;20038;-69
2022/07/19 01:25:56;;;;;;;8.52;4.38;;;;;;;22.10;100.00;101752.25;5106418;28;20387;-70
2022/07/19 01:28:21;;;;;;;8.30;4.88;;;;;;;22.07;100.00;101753.22;5094730;28;20056;-69
2022/07/19 01:30:47;;;;;;;7.55;4.40;;;;;;;22.01;100.00;101756.84;5084855;28;20016;-70
2022/07/19 01:33:12;;;;;;;8.38;5.03;;;;;;;21.98;100.00;101750.69;5099862;28;20047;-70
2022/07/19 01:35:37;;;;;;;9.13;4.93;;;;;;;22.00;100.00;101751.53;5094272;28;20016;-69
2022/07/19 01:38:03;;;;;;;6.57;4.38;;;;;;;21.98;100.00;101750.69;5094376;28;20078;-70
2022/07/19 01:40:28;;;;;;;7.60;4.53;;;;;;;22.10;100.00;101745.09;5094599;28;20026;-71
2022/07/19 01:42:53;;;;;;;10.23;5.65;;;;;;;21.99;100.00;101744.38;5076050;28;20077;-70
2022/07/19 01:45:20;;;;;;;7.30;5.03;;;;;;;21.90;100.00;101743.63;5094234;28;20047;-71
2022/07/19 01:47:46;;;;;;;17.75;6.22;;;;;;;21.83;100.00;101747.31;5094599;28;20020;-71
2022/07/19 01:50:15;;;;;;;11.02;5.13;;;;;;;21.81;100.00;101748.25;5101947;28;20479;-70
2022/07/19 01:52:40;;;;;;;8.82;5.30;;;;;;;21.79;100.00;101745.59;5098913;28;20023;-69
2022/07/19 01:55:06;;;;;;;11.05;4.90;;;;;;;21.71;100.00;101751.06;5095006;28;20392;-69
2022/07/19 01:57:32;;;;;;;8.18;4.80;;;;;;;21.69;100.00;101747.56;5095413;28;20395;-70
2022/07/19 01:59:57;;;;;;;10.65;5.18;;;;;;;21.66;100.00;101749.38;5105770;28;20089;-71
2022/07/19 02:02:23;;;;;;;8.57;5.05;;;;;;;21.64;100.00;101737.81;5093896;28;20031;-69
2022/07/19 02:04:48;;;;;;;9.82;5.35;;;;;;;21.57;100.00;101745.06;5075575;28;20030;-69
2022/07/19 02:07:14;;;;;;;8.43;5.43;;;;;;;21.55;100.00;101742.41;5093779;28;20049;-70
2022/07/19 02:09:39;;;;;;;6.68;4.43;;;;;;;21.49;100.00;101731.75;5093744;28;20038;-71
2022/07/19 02:12:05;;;;;;;8.52;5.25;;;;;;;21.52;100.00;101728.13;5093830;28;20030;-71
2022/07/19 02:14:30;;;;;;;8.23;4.90;;;;;;;21.55;100.00;101734.38;5093239;28;20364;-69
2022/07/19 02:16:55;;;;;;;10.20;5.05;;;;;;;21.50;100.00;101736.19;5093492;28;20047;-70
2022/07/19 02:19:21;;;;;;;10.68;4.85;;;;;;;21.47;100.00;101730.88;5096498;28;20028;-70
2022/07/19 02:21:47;;;;;;;13.77;5.28;;;;;;;21.44;100.00;101727.38;5106983;28;20098;-70
2022/07/19 02:24:13;;;;;;;8.38;4.82;;;;;;;21.39;100.00;101724.75;5083513;28;20023;-70
2022/07/19 02:26:38;;;;;;;10.65;5.07;;;;;;;21.38;100.00;101733.69;5095415;28;20023;-70
2022/07/19 02:29:03;;;;;;;14.70;5.60;;;;;;;21.36;100.00;101725.66;5114051;28;20035;-70
2022/07/19 02:31:29;;;;;;;7.63;5.25;;;;;;;21.38;100.00;101717.63;5113806;28;20073;-69
2022/07/19 02:33:54;;;;;;;8.40;4.80;;;;;;;21.35;100.00;101721.25;5114067;28;20016;-69
2022/07/19 02:36:19;;;;;;;11.27;5.65;;;;;;;21.34;100.00;101721.25;5099234;28;20128;-69
2022/07/19 02:38:46;;;;;;;10.52;6.25;;;;;;;21.32;100.00;101723.06;5093641;28;20111;-70
2022/07/19 02:41:13;;;;;;;10.27;5.25;;;;;;;21.36;100.00;101724.78;5093357;28;20028;-69
2022/07/19 02:43:39;;;;;;;10.60;5.78;;;;;;;21.30;100.00;101719.53;5075158;28;20024;-69
2022/07/19 02:46:05;;;;;;;7.18;5.60;;;;;;;21.36;100.00;101720.31;5093202;28;20028;-70
2022/07/19 02:48:30;;;;;;;10.75;5.90;;;;;;;21.36;100.00;101730.16;5101142;28;20034;-70
2022/07/19 02:50:56;;;;;;;16.45;6.00;;;;;;;21.39;100.00;101720.28;5100201;28;20081;-69
2022/07/19 02:53:21;;;;;;;10.00;6.35;;;;;;;21.35;100.00;101720.34;5058756;28;20020;-70
2022/07/19 02:55:46;;;;;;;15.85;7.85;;;;;;;21.30;100.00;101719.53;5095169;28;20071;-70
2022/07/19 02:58:12;;;;;;;14.02;7.45;;;;;;;21.21;100.00;101716.06;5093255;28;20104;-70
2022/07/19 03:00:37;;;;;;;10.32;7.10;;;;;;;21.18;100.00;101717.91;5093220;28;20031;-70
2022/07/19 03:05:48;;;;;;;13.15;7.75;;;;;;;21.16;100.00;101723.28;5098490;28;20085;-70
2022/07/19 03:08:14;;;;;;;11.82;7.28;;;;;;;21.15;100.00;101705.47;5093456;28;20028;-69
2022/07/19 03:10:40;;;;;;;12.45;6.72;;;;;;;21.13;100.00;101712.59;5075431;28;20035;-70
2022/07/19 03:13:05;;;;;;;15.00;6.90;;;;;;;21.12;100.00;101710.84;5075293;28;20020;-71
2022/07/19 03:15:30;;;;;;;10.55;7.30;;;;;;;21.17;100.00;101708.97;5093151;28;20557;-69
2022/07/19 03:17:56;;;;;;;19.13;8.55;;;;;;;21.11;100.00;101719.78;5093259;28;20030;-70
2022/07/19 03:20:22;;;;;;;13.10;7.75;;;;;;;21.14;100.00;101710.84;5111878;28;20088;-69
2022/07/19 03:22:47;;;;;;;15.38;7.57;;;;;;;21.14;100.00;101703.69;5103891;28;20039;-70
2022/07/19 03:25:12;;;;;;;15.18;7.70;;;;;;;21.13;100.00;101707.25;5109866;28;20035;-69
2022/07/19 03:27:38;;;;;;;13.23;9.18;;;;;;;21.13;100.00;101704.56;5116690;28;20459;-69
2022/07/19 03:30:05;;;;;;;15.15;9.57;;;;;;;21.14;100.00;101709.03;5117424;28;20066;-70
2022/07/19 03:32:30;;;;;;;16.80;9.40;;;;;;;21.14;100.00;101710.84;5117259;28;20093;-69
2022/07/19 03:34:55;;;;;;;13.82;9.40;;;;;;;21.10;100.00;101712.66;5099003;28;20036;-69
2022/07/19 03:37:21;;;;;;;16.63;9.77;;;;;;;21.13;100.00;101709.94;5117088;28;20027;-70
2022/07/19 03:39:46;;;;;;;15.10;10.70;;;;;;;21.10;100.00;101706.44;5116725;28;20463;-69
2022/07/19 03:42:11;;;;;;;22.13;10.40;;;;;;;21.09;100.00;101710.88;5117171;28;20133;-70
2022/07/19 03:44:37;;;;;;;19.50;10.48;;;;;;;21.12;100.00;101707.28;5098566;28;20375;-68
2022/07/19 03:47:02;;;;;;;15.20;9.20;;;;;;;21.11;100.00;101713.56;5116740;28;20558;-70
2022/07/19 03:49:27;;;;;;;14.68;9.90;;;;;;;21.09;100.00;101700.16;5117071;28;21242;-70
2022/07/19 03:51:53;;;;;;;15.52;10.25;;;;;;;21.04;100.00;101707.41;5116605;28;20020;-69
2022/07/19 03:54:18;;;;;;;17.77;10.52;;;;;;;21.02;100.00;101703.84;5116585;28;20532;-69
2022/07/19 03:56:43;;;;;;;17.90;10.43;;;;;;;21.02;100.00;101707.41;5107345;28;20082;-69
2022/07/19 03:59:09;;;;;;;14.25;8.88;;;;;;;21.05;100.00;101709.16;5096367;28;20115;-69
2022/07/19 04:01:34;;;;;;;13.35;9.18;;;;;;;20.97;100.00;101711.03;5104930;28;20020;-70
2022/07/19 04:04:00;;;;;;;19.80;9.43;;;;;;;20.95;100.00;101712.88;5096873;28;20023;-68
2022/07/19 04:06:25;;;;;;;13.20;9.32;;;;;;;20.90;100.00;101710.22;5096327;28;20027;-71
2022/07/19 04:08:51;;;;;;;17.30;9.55;;;;;;;20.85;100.00;101707.63;5096055;28;20015;-69
2022/07/19 04:11:16;;;;;;;14.63;9.77;;;;;;;20.80;100.00;101709.47;5096317;28;20035;-70
2022/07/19 04:13:41;;;;;;;12.85;9.57;;;;;;;20.82;100.00;101713.03;5096976;28;20526;-69
2022/07/19 04:16:06;;;;;;;12.57;9.60;;;;;;;20.79;100.00;101710.38;5116729;28;20035;-69
2022/07/19 04:18:32;;;;;;;16.92;8.90;;;;;;;20.84;100.00;101713.88;5105008;28;20094;-71
2022/07/19 04:20:58;;;;;;;13.43;9.20;;;;;;;20.78;100.00;101700.59;5116188;28;20023;-71
2022/07/19 04:23:23;;;;;;;13.88;8.82;;;;;;;20.73;100.00;101702.44;5102577;28;20028;-70
2022/07/19 04:25:49;;;;;;;13.73;9.10;;;;;;;20.71;100.00;101710.47;5116057;28;20551;-70
2022/07/19 04:28:14;;;;;;;18.45;10.18;;;;;;;20.74;100.00;101712.25;5097749;28;20027;-71
2022/07/19 04:30:39;;;;;;;13.80;8.85;;;;;;;20.77;100.00;101709.50;5115982;28;20023;-70
2022/07/19 04:33:05;;;;;;;14.05;10.38;;;;;;;20.79;100.00;101712.16;5116054;28;20031;-71
2022/07/19 04:35:30;;;;;;;16.63;8.98;;;;;;;20.83;100.00;101704.06;5116285;28;20058;-70
2022/07/19 04:37:56;;;;;;;11.60;8.40;;;;;;;20.88;100.00;101712.94;5115548;28;20084;-71
2022/07/19 04:40:21;;;;;;;12.45;8.63;;;;;;;20.88;100.00;101704.03;5115893;28;20028;-70
2022/07/19 04:42:46;;;;;;;13.90;8.98;;;;;;;20.95;100.00;101704.84;5115962;28;20097;-71
2022/07/19 04:45:12;;;;;;;13.50;8.40;;;;;;;20.97;100.00;101709.28;5115857;28;20020;-71
2022/07/19 04:47:37;;;;;;;16.13;8.45;;;;;;;21.01;100.00;101710.09;5115726;28;20092;-70
2022/07/19 04:50:03;;;;;;;13.48;9.10;;;;;;;21.07;100.00;101699.31;5115974;28;20028;-70
2022/07/19 04:52:29;;;;;;;11.35;8.15;;;;;;;21.11;100.00;101698.38;5115671;28;20498;-70
2022/07/19 04:54:54;;;;;;;14.35;9.35;;;;;;;21.18;100.00;101708.09;5113522;28;20040;-69
2022/07/19 04:57:19;;;;;;;13.63;8.70;;;;;;;21.23;100.00;101708.91;5115533;28;20024;-70
2022/07/19 04:59:45;;;;;;;12.75;8.65;;;;;;;21.26;100.00;101707.97;5115609;28;20016;-69
2022/07/19 05:02:10;;;;;;;17.13;11.02;;;;;;;21.32;100.00;101712.34;5102438;28;20031;-70
2022/07/19 05:04:35;;;;;;;12.85;8.60;;;;;;;21.38;100.00;101712.28;5076507;28;20395;-70
2022/07/19 05:07:01;;;;;;;14.88;9.50;;;;;;;21.39;100.00;101709.56;5094850;28;20380;-70
2022/07/19 05:09:27;;;;;;;15.90;9.20;;;;;;;21.43;100.00;101702.38;5094675;28;20020;-70
2022/07/19 05:11:53;;;;;;;13.15;8.68;;;;;;;21.50;100.00;101708.50;5076517;28;20035;-70
2022/07/19 05:14:19;;;;;;;13.95;8.98;;;;;;;21.54;100.00;101707.59;5095784;28;20023;-70
2022/07/19 05:16:45;;;;;;;14.82;9.27;;;;;;;21.60;100.00;101709.31;5102668;28;20057;-70
2022/07/19 05:19:11;;;;;;;15.68;8.80;;;;;;;21.64;100.00;101708.34;5096964;28;20031;-70
2022/07/19 05:21:36;;;;;;;14.48;8.85;;;;;;;21.72;100.00;101712.66;5107866;28;20031;-70
2022/07/19 05:24:02;;;;;;;16.90;10.43;;;;;;;21.75;100.00;101705.50;5094917;28;20031;-70
2022/07/19 05:26:27;;;;;;;19.83;10.20;;;;;;;21.80;100.00;101708.97;5107551;28;20030;-70
2022/07/19 05:28:53;;;;;;;17.38;10.63;;;;;;;21.85;100.00;101704.44;5114968;28;20016;-71
2022/07/19 05:31:18;;;;;;;18.20;9.70;;;;;;;21.96;100.00;101706.94;5101955;28;20020;-70
2022/07/19 05:33:43;;;;;;;18.75;9.63;;;;;;;21.98;100.00;101702.44;5076227;28;20039;-70
2022/07/19 05:36:10;;;;;;;22.35;10.23;;;;;;;22.00;100.00;101704.19;5094406;28;20031;-71
2022/07/19 05:38:38;;;;;;;16.45;9.00;;;;;;;22.06;100.00;101711.22;5093994;28;20104;-69
2022/07/19 05:41:04;;;;;;;18.35;10.50;;;;;;;22.12;100.00;101705.75;5094329;28;20488;-71
2022/07/19 05:43:29;;;;;;;17.50;9.55;;;;;;;22.20;100.00;101710.97;5094488;28;20054;-70
2022/07/19 05:45:54;;;;;;;14.63;9.60;;;;;;;22.24;100.00;101694.78;5076320;28;20032;-71
2022/07/19 05:48:20;;;;;;;20.80;10.20;;;;;;;22.30;100.00;101700.97;5094349;28;20036;-70
2022/07/19 05:50:45;;;;;;;17.10;10.48;;;;;;;22.36;100.00;101698.22;5093520;28;20016;-70
2022/07/19 05:53:10;;;;;;;18.92;10.57;;;;;;;;;;5094043;28;20062;-71
2022/07/19 05:55:37;;;;;;;21.20;9.57;;;;;;;22.55;100.00;101696.06;5106564;28;20052;-71
2022/07/19 05:58:02;;;;;;;22.15;10.18;;;;;;;22.61;100.00;101703.09;5094346;28;20621;-71
2022/07/19 06:00:28;;;;;;;24.77;10.32;;;;;;;22.69;100.00;101701.13;5094074;28;20020;-69
2022/07/19 06:02:53;;;;;;;27.45;10.95;;;;;;;22.75;100.00;101695.66;5107640;28;20020;-70
2022/07/19 06:05:19;;;;;;;17.70;10.73;;;;;;;22.86;100.00;101698.09;5093883;28;20104;-70
2022/07/19 06:07:44;;;;;;;17.55;10.73;;;;;;;22.97;100.00;101700.56;5093688;28;20048;-69
2022/07/19 06:10:09;;;;;;;17.33;9.68;;;;;;;23.04;100.00;101708.44;5094066;28;20525;-70
2022/07/19 06:12:35;;;;;;;19.00;10.98;;;;;;;23.15;100.00;101702.84;5093965;28;20491;-70
2022/07/19 06:15:00;;;;;;;26.80;11.48;;;;;;;23.27;95.64;101699.03;5093986;28;20379;-70
2022/07/19 06:17:25;;;;;;;27.42;9.95;;;;;;;23.38;93.86;101696.97;5094181;28;20099;-69
2022/07/19 06:19:51;;;;;;;24.40;9.30;;;;;;;23.51;93.68;101696.69;5096015;28;20044;-72
2022/07/19 06:22:16;;;;;;;17.42;9.85;;;;;;;23.63;93.15;101692.81;5089259;28;20032;-71
2022/07/19 06:24:42;;;;;;;22.38;10.43;;;;;;;23.74;92.56;101690.75;5105794;28;20466;-71
2022/07/19 06:27:07;;;;;;;22.08;10.90;;;;;;;23.84;90.85;101700.34;5109512;28;20016;-71
2022/07/19 06:29:32;;;;;;;17.23;9.60;;;;;;;23.98;91.81;101696.44;5075854;28;20069;-71
2022/07/19 06:31:57;;;;;;;19.77;8.88;;;;;;;24.11;91.45;101694.34;5093635;28;20092;-71
2022/07/19 06:34:23;;;;;;;16.80;8.93;;;;;;;24.26;89.23;101701.09;5094120;28;20040;-70
2022/07/19 06:36:48;;;;;;;20.02;9.45;;;;;;;24.38;88.62;101690.00;5093803;28;20073;-71
2022/07/19 06:39:13;;;;;;;16.35;7.47;;;;;;;24.47;87.82;101700.53;5094115;28;20483;-70
2022/07/19 06:41:39;;;;;;;14.32;7.13;;;;;;;24.57;87.33;101699.31;5075810;28;20024;-71
2022/07/19 06:44:04;;;;;;;18.70;9.55;;;;;;;24.67;80.36;101697.28;5104596;28;20031;-71
2022/07/19 06:46:29;;;;;;;18.05;9.73;;;;;;;24.82;79.30;101697.75;5113794;28;20471;-71
2022/07/19 06:48:55;;;;;;;16.48;8.57;;;;;;;24.94;78.95;101692.00;5095921;28;20119;-71
2022/07/19 06:51:20;;;;;;;19.73;9.52;;;;;;;25.05;76.02;101691.69;5100565;28;20027;-70
2022/07/19 06:53:45;;;;;;;14.75;7.88;;;;;;;25.18;75.87;101682.28;5114191;28;20379;-71
2022/07/19 06:56:11;;;;;;;14.65;7.88;;;;;;;25.30;75.33;101690.91;5112747;28;20055;-71
2022/07/19 06:58:36;;;;;;;14.82;8.35;;;;;;;25.37;75.08;101692.53;5114373;28;20019;-71
2022/07/19 07:01:03;;;;;;;14.07;7.88;;;;;;;25.45;75.31;101687.78;5096143;28;20031;-71
2022/07/19 07:03:28;;;;;;;11.48;6.90;;;;;;;25.51;75.39;101687.56;5089218;28;20157;-72
2022/07/19 07:05:54;;;;;;;10.27;6.00;;;;;;;25.58;75.81;101682.84;5097454;28;20107;-69
2022/07/19 07:08:19;;;;;;;15.95;7.95;;;;;;;25.64;74.44;101679.97;5097487;28;20035;-70
2022/07/19 07:10:45;;;;;;;19.60;8.73;;;;;;;25.68;74.37;101687.00;5097379;28;20030;-71
2022/07/19 07:13:10;;;;;;;14.27;7.65;;;;;;;25.74;72.60;101676.00;5079751;28;20028;-70
2022/07/19 07:15:38;;;;;;;11.85;7.05;;;;;;;25.83;72.74;101684.72;5097517;28;20018;-72
2022/07/19 07:18:03;;;;;;;15.20;6.40;;;;;;;25.89;75.68;101674.59;5097505;28;20027;-72
2022/07/19 07:20:29;;;;;;;18.85;8.60;;;;;;;25.95;78.78;101678.03;5103766;28;20062;-71
2022/07/19 07:22:54;;;;;;;13.88;6.22;;;;;;;25.98;81.20;101675.22;5111672;28;20023;-70
2022/07/19 07:25:19;;;;;;;24.60;8.02;;;;;;;26.04;77.54;101675.03;5100698;28;20536;-70
2022/07/19 07:27:45;;;;;;;14.27;7.13;;;;;;;26.12;77.65;101669.38;5107849;28;20506;-71
2022/07/19 07:30:10;;;;;;;12.25;6.30;;;;;;;26.21;75.53;101664.53;5079363;28;20464;-70
2022/07/19 07:32:36;;;;;;;14.13;6.70;;;;;;;26.34;73.11;101664.09;5079254;28;20032;-70
2022/07/19 07:35:02;;;;;;;18.45;7.55;;;;;;;26.41;69.54;101660.22;5097212;28;20016;-72
2022/07/19 07:37:28;;;;;;;22.95;7.28;;;;;;;26.57;69.62;101660.53;5097216;28;20535;-69
2022/07/19 07:39:53;;;;;;;9.82;5.22;;;;;;;26.72;68.22;101659.09;5100761;28;20051;-71
2022/07/19 07:42:18;;;;;;;13.68;6.65;;;;;;;26.91;66.17;101664.66;5117627;28;20103;-71
2022/07/19 07:44:44;;;;;;;11.60;6.35;;;;;;;27.10;64.29;101664.81;5099969;28;20016;-71
2022/07/19 07:47:09;;;;;;;7.55;5.63;;;;;;;27.25;64.78;101666.03;5097325;28;20028;-70
2022/07/19 07:49:36;;;;;;;16.35;6.70;;;;;;;27.42;61.45;101676.19;5097025;28;20471;-71
2022/07/19 07:52:01;;;;;;;11.57;6.35;;;;;;;27.54;60.35;101662.16;5096983;28;20040;-71
2022/07/19 07:54:27;;;;;;;11.90;6.25;;;;;;;27.70;60.40;101664.22;5096560;28;20095;-70
2022/07/19 07:56:53;;;;;;;13.43;7.55;;;;;;;27.83;59.94;101668.16;5096593;28;20036;-70
2022/07/19 07:59:18;;;;;;;18.95;7.05;;;;;;;27.97;59.27;101667.56;5097053;28;20028;-72
2022/07/19 08:01:44;;;;;;;9.57;4.97;;;;;;;28.08;60.38;101665.31;5096825;28;20402;-72
2022/07/19 08:04:09;;;;;;;10.93;6.00;;;;;;;28.23;60.45;101663.75;5096746;28;20395;-72
2022/07/19 08:06:35;;;;;;;11.70;7.68;;;;;;;28.33;58.78;101660.63;5096591;28;20125;-71
2022/07/19 08:09:00;;;;;;;21.92;9.80;;;;;;;28.38;57.15;101655.88;5096496;28;20040;-72
2022/07/19 08:11:26;;;;;;;19.63;8.63;;;;;;;28.42;59.43;101662.91;5078114;28;20023;-71
2022/07/19 08:13:51;;;;;;;17.45;8.93;;;;;;;28.48;60.86;101665.31;5095242;28;20099;-70
2022/07/19 08:16:16;;;;;;;12.73;7.57;;;;;;;28.53;62.41;101668.72;5096384;28;20497;-71
2022/07/19 08:18:42;;;;;;;16.35;10.63;;;;;;;28.60;59.69;101658.47;5096982;28;20395;-71
2022/07/19 08:21:08;;;;;;;18.17;9.82;;;;;;;28.65;56.93;101652.84;5087291;28;20023;-71
2022/07/19 08:23:33;;;;;;;19.02;10.73;;;;;;;28.67;57.86;101646.44;5100352;28;20511;-70
2022/07/19 08:25:58;;;;;;;15.60;10.27;;;;;;;28.74;59.35;101647.00;5078084;28;20036;-71
2022/07/19 08:28:24;;;;;;;18.50;8.77;;;;;;;28.79;58.33;101654.94;5098154;28;20028;-71
2022/07/19 08:30:49;;;;;;;13.38;8.65;;;;;;;28.86;57.92;101649.13;5097964;28;20019;-72
2022/07/19 08:33:14;;;;;;;14.02;7.40;;;;;;;28.94;58.32;101646.94;5100233;28;20357;-71
2022/07/19 08:35:40;;;;;;;15.30;7.97;;;;;;;29.05;57.99;101650.97;5095828;28;20050;-71
2022/07/19 08:38:05;;;;;;;14.75;7.18;;;;;;;29.14;55.80;101655.94;5095771;28;20103;-71
2022/07/19 08:40:33;;;;;;;15.15;7.95;;;;;;;29.20;55.38;101644.78;5095561;28;20023;-72
2022/07/19 08:43:01;;;;;;;14.85;6.78;;;;;;;29.26;55.50;101649.06;5095751;28;20073;-71
2022/07/19 08:45:29;;;;;;;14.10;6.72;;;;;;;29.33;52.59;101644.22;5095629;28;20539;-71
2022/07/19 08:47:55;;;;;;;9.48;5.45;;;;;;;29.41;52.65;101636.56;5095054;28;20056;-71
2022/07/19 08:50:21;;;;;;;11.10;6.13;;;;;;;29.51;53.19;101637.88;5095676;28;20088;-70
2022/07/19 08:52:47;;;;;;;13.38;5.90;;;;;;;29.58;54.38;101636.59;5095261;28;20028;-72
2022/07/19 08:55:13;;;;;;;10.80;5.18;;;;;;;29.66;55.17;101635.34;5095634;28;20132;-70
2022/07/19 08:57:57;;;;;;;10.77;5.55;;;;;;;29.75;54.93;101634.88;5095616;28;20471;-71
2022/07/19 09:00:23;;;;;;;10.20;4.85;;;;;;;29.90;54.70;101638.66;5108098;28;20104;-70
2022/07/19 09:02:58;;;;;;;13.63;5.50;;;;;;;30.00;54.61;101628.19;5096055;28;20040;-70
2022/07/19 09:05:24;;;;;;;15.02;6.10;;;;;;;30.05;54.13;101628.81;5095092;28;20035;-71
2022/07/19 09:08:05;;;;;;;12.45;6.28;;;;;;;30.16;54.93;101628.25;5095216;28;20027;-71
2022/07/19 09:10:32;;;;;;;17.42;6.68;;;;;;;30.22;53.46;101638.75;5110909;28;20024;-71
2022/07/19 09:13:08;;;;;;;17.63;6.47;;;;;;;30.34;54.24;101634.50;5115478;28;20455;-71
2022/07/19 09:15:54;;;;;;;11.82;5.45;;;;;;;30.46;52.56;101633.00;5115175;28;20028;-71
2022/07/19 09:18:27;;;;;;;10.55;4.43;;;;;;;30.55;51.92;101627.94;5115248;28;20072;-70
2022/07/19 09:20:57;;;;;;;10.68;3.40;;;;;;;30.71;49.15;101629.78;5115138;28;20174;-70
2022/07/19 09:23:23;;;;;;;14.43;3.95;;;;;;;30.82;50.71;101629.19;5096936;28;20471;-71
2022/07/19 09:25:53;;;;;;;11.18;3.60;;;;;;;30.97;49.53;101632.84;5114673;28;20031;-71
2022/07/19 09:28:20;;;;;;;9.77;2.88;;;;;;;31.08;46.43;101623.16;5114666;28;20038;-70
2022/07/19 09:30:48;;;;;;;5.90;2.75;;;;;;;31.23;46.64;101634.13;5115306;28;20527;-71
2022/07/19 09:33:21;;;;;;;8.75;3.00;;;;;;;31.30;47.14;101616.47;5096581;28;20489;-71
2022/07/19 09:35:53;;;;;;;6.45;2.75;;;;;;;31.37;44.87;101617.00;5115134;28;20482;-71
2022/07/19 09:38:24;;;;;;;6.78;2.55;;;;;;;31.51;45.16;101616.16;5114991;28;20028;-72
2022/07/19 09:40:52;;;;;;;7.30;2.97;;;;;;;31.59;43.63;101619.28;5115140;28;20087;-72
2022/07/19 09:43:19;;;;;;;5.13;2.55;;;;;;;31.68;43.73;101609.75;5096862;28;20020;-71
2022/07/19 09:45:45;;;;;;;10.73;3.10;;;;;;;31.78;42.79;101613.63;5094207;28;20070;-71
2022/07/19 09:48:10;;;;;;;5.55;2.15;;;;;;;31.93;42.91;101607.28;5108292;28;20031;-72
2022/07/19 09:50:36;;;;;;;8.80;2.60;;;;;;;32.07;42.32;101611.00;5093793;28;20027;-71
2022/07/19 09:53:03;;;;;;;6.55;2.67;;;;;;;32.20;42.00;101603.81;5094326;28;20502;-70
2022/07/19 09:55:29;;;;;;;5.20;2.53;;;;;;;32.34;41.92;101602.06;5095027;28;20040;-71
2022/07/19 09:57:57;;;;;;;5.25;2.65;;;;;;;32.47;40.32;101613.06;5094187;28;20035;-72
2022/07/19 10:00:24;;;;;;;8.07;2.13;;;;;;;32.61;40.14;101611.19;5094153;28;20521;-71
2022/07/19 10:02:52;;;;;;;5.32;2.13;;;;;;;32.72;39.37;101599.63;5094003;28;20114;-71
2022/07/19 10:05:18;;;;;;;5.55;2.00;;;;;;;32.83;39.23;101604.38;5094123;28;20031;-72
2022/07/19 10:07:44;;;;;;;6.10;2.22;;;;;;;32.91;40.38;101590.22;5093720;28;20352;-72
2022/07/19 10:10:14;;;;;;;6.53;2.22;;;;;;;33.00;39.93;101597.78;5075453;28;20024;-70
2022/07/19 10:12:43;;;;;;;10.20;2.55;;;;;;;33.11;39.84;101589.78;5113876;28;20475;-70
2022/07/19 10:15:10;;;;;;;7.22;2.20;;;;;;;33.26;39.90;101581.56;5114280;28;20019;-71
2022/07/19 10:17:58;;;;;;;6.57;2.50;;;;;;;33.38;38.90;101580.72;5114287;28;20028;-71
2022/07/19 10:20:26;;;;;;;4.53;2.03;;;;;;;33.51;39.57;101583.50;5100920;28;20054;-70
2022/07/19 10:22:52;;;;;;;8.32;2.45;;;;;;;33.68;39.57;101575.97;5109519;28;20027;-71
2022/07/19 10:25:18;;;;;;;6.28;1.88;;;;;;;33.82;37.32;101575.94;5111176;28;20069;-71
2022/07/19 10:27:49;;;;;;;9.32;2.15;;;;;;;33.90;37.70;101576.25;5093782;28;20024;-70
2022/07/19 10:30:14;;;;;;;8.45;2.50;;;;;;;34.03;38.03;101580.84;5093932;28;20420;-71
2022/07/19 10:32:42;;;;;;;8.95;2.30;;;;;;;34.10;37.71;101571.22;5104637;28;20031;-72
2022/07/19 10:35:18;;;;;;;7.30;1.95;;;;;;;34.10;37.22;101573.94;5095746;28;20043;-70
2022/07/19 10:37:46;;;;;;;5.28;2.15;;;;;;;34.23;36.50;101569.34;5105175;28;20440;-72
2022/07/19 10:40:12;;;;;;;9.20;1.83;;;;;;;34.25;35.54;101572.84;5097632;28;20471;-70
2022/07/19 10:43:04;;;;;;;4.68;2.08;;;;;;;34.36;35.78;101568.47;5097900;28;20027;-71
2022/07/19 10:45:29;;;;;;;8.07;2.03;;;;;;;34.41;35.83;101567.16;5079720;28;20028;-71
2022/07/19 10:48:05;;;;;;;5.72;1.90;;;;;;;34.61;37.05;101570.28;5114210;28;20157;-71
2022/07/19 10:50:54;;;;;;;6.50;2.00;;;;;;;34.74;36.56;101570.22;5118191;28;20106;-72
2022/07/19 10:53:38;;;;;;;3.33;1.75;;;;;;;34.83;35.61;101561.38;5097510;28;20079;-71
2022/07/19 10:56:54;;;;;;;6.97;1.88;;;;;;;34.93;33.64;101561.53;5096264;28;20518;-72
2022/07/19 10:59:34;;;;;;;5.43;2.05;;;;;;;35.02;34.98;101557.25;5079420;28;20058;-70
2022/07/19 11:02:03;;;;;;;11.25;2.17;;;;;;;35.16;35.56;101557.06;5117900;28;20027;-71
2022/07/19 11:04:30;;;;;;;5.07;2.17;;;;;;;35.22;35.80;101544.78;5117981;28;20042;-71
2022/07/19 11:07:18;;;;;;;6.43;2.22;;;;;;;35.37;36.20;101549.09;5118077;28;20026;-70
2022/07/19 11:09:47;;;;;;;6.40;2.40;;;;;;;35.45;35.10;101543.03;5117829;28;20024;-70
2022/07/19 11:12:39;;;;;;;8.40;2.60;;;;;;;35.57;34.62;101543.91;5117819;28;20173;-71
2022/07/19 11:15:08;;;;;;;4.45;2.05;;;;;;;35.55;34.41;101535.81;5114735;28;20032;-71